Accueil
METAR-TAF:

METAR-TAF

Aéroports :

Aéroport international de Bagdad

Bagdad, Irak

latitude: 33-15-45N, longitude: 44-14-04E, altitude: 35 m

Observation

Le bulletin a été fait il y a 45 minutes, à 22:00 UTC
Vent 6 kt de nord-ouest
Température 27°C
Humidité 37%
Pression 1007 hPa
Visibilité 10 km ou plus
pas de nuages en-dessous de 1500 mètres et pas de cumulonimbus.

METAR: ORBI 202200Z 32006KT CAVOK 27/11 Q1007 NOSIG

Heure: 01:45 (22:45 UTC)

Prévision

Le bulletin a été fait il y a 6 heures et 45 minutes, à 16:00 UTC
Prévision valable du 20 à 18 UTC au 21 à 18 UTC
Vent 12 kt de nord-ouest
Visibilité 10 km ou plus
pas de nuages en-dessous de 1500 mètres et pas de cumulonimbus.

TAF: ORBI 201600Z 2018/2118 32012KT CAVOK

Observations et prévisions météorologiques de plus de 4000 aéroports (messages METAR et TAF).

Les stations disponibles sont représentées par des disques jaunes et rouges sur la carte.

Passer la souris dessus pour voir le nom de la station.

Cliquer dessus pour voir les observations et prévisions météorologiques.

Pour changer de carte: cliquez sur les boutons verts avec une croix noire pour zoomer, sur le bouton vert avec un tiret pour effectuer un zoom arrière, ou sur les flèches vertes pour les cartes adjacentes.


METAR-TAF: